createdAt,value
2019-05-23T00:01:05.860Z,8.78
2019-05-23T00:03:01.418Z,7.72
2019-05-23T00:04:40.735Z,7.85
2019-05-23T00:06:10.942Z,7.47
2019-05-23T00:07:35.825Z,7.28
2019-05-23T00:09:01.536Z,9.78
2019-05-23T00:10:13.212Z,9.20
2019-05-23T00:11:33.621Z,7.58
2019-05-23T00:13:16.430Z,7.42
2019-05-23T00:14:46.339Z,9.13
2019-05-23T00:15:54.956Z,8.25
2019-05-23T00:17:02.728Z,8.40
2019-05-23T00:18:09.646Z,9.40
2019-05-23T00:19:16.864Z,9.60
2019-05-23T00:20:25.347Z,8.33
2019-05-23T00:21:33.780Z,8.63
2019-05-23T00:22:40.817Z,7.58
2019-05-23T00:23:48.033Z,10.68
2019-05-23T00:24:56.011Z,7.62
2019-05-23T00:26:03.637Z,8.35
2019-05-23T00:27:10.038Z,11.90
2019-05-23T00:28:17.423Z,7.37
2019-05-23T00:29:26.168Z,9.55
2019-05-23T00:30:41.018Z,11.93
2019-05-23T00:31:51.881Z,10.03
2019-05-23T00:33:00.605Z,7.90
2019-05-23T00:34:08.890Z,7.92
2019-05-23T00:35:18.277Z,8.28
2019-05-23T00:36:24.856Z,7.80
2019-05-23T00:37:32.499Z,7.37
2019-05-23T00:38:40.199Z,12.10
2019-05-23T00:39:48.105Z,7.92
2019-05-23T00:40:54.127Z,7.90
2019-05-23T00:42:01.764Z,6.72
2019-05-23T00:43:09.865Z,8.03
2019-05-23T00:44:16.873Z,7.58
2019-05-23T00:45:25.055Z,7.60
2019-05-23T00:46:32.621Z,7.42
2019-05-23T00:47:39.645Z,7.78
2019-05-23T00:48:46.732Z,7.87
2019-05-23T00:49:52.915Z,7.70
2019-05-23T00:50:59.543Z,8.55
2019-05-23T00:52:06.135Z,9.60
2019-05-23T00:53:13.322Z,13.60
2019-05-23T00:54:21.166Z,8.18
2019-05-23T00:55:28.214Z,13.32
2019-05-23T00:56:36.020Z,12.13
2019-05-23T00:57:44.894Z,8.33
2019-05-23T00:58:51.938Z,7.92
2019-05-23T00:59:59.475Z,10.95
2019-05-23T01:01:07.078Z,9.83
2019-05-23T01:02:14.315Z,9.75
2019-05-23T01:03:21.541Z,9.65
2019-05-23T01:04:29.142Z,8.70
2019-05-23T01:05:35.471Z,8.80
2019-05-23T01:06:43.223Z,8.95
2019-05-23T01:07:50.735Z,9.30
2019-05-23T01:08:59.127Z,9.85
2019-05-23T01:10:07.412Z,9.20
2019-05-23T01:11:14.505Z,8.10
2019-05-23T01:12:22.514Z,8.85
2019-05-23T01:13:30.627Z,8.53
2019-05-23T01:14:38.838Z,8.43
2019-05-23T01:15:46.227Z,10.03
2019-05-23T01:16:54.056Z,9.43
2019-05-23T01:18:01.752Z,10.03
2019-05-23T01:19:09.627Z,10.10
2019-05-23T01:20:21.144Z,8.48
2019-05-23T01:21:38.291Z,10.08
2019-05-23T01:22:46.375Z,8.53
2019-05-23T01:24:00.834Z,9.18
2019-05-23T01:25:09.363Z,9.48
2019-05-23T01:26:16.446Z,11.88
2019-05-23T01:27:24.151Z,10.20
2019-05-23T01:28:31.625Z,9.68
2019-05-23T01:29:49.683Z,11.25
2019-05-23T01:30:56.565Z,9.75
2019-05-23T01:32:12.038Z,13.78
2019-05-23T01:33:19.537Z,10.00
2019-05-23T01:34:27.104Z,11.80
2019-05-23T01:35:33.938Z,10.23
2019-05-23T01:36:41.279Z,10.68
2019-05-23T01:37:48.917Z,11.68
2019-05-23T01:38:55.807Z,13.65
2019-05-23T01:40:02.217Z,9.35
2019-05-23T01:41:10.883Z,9.85
2019-05-23T01:42:17.668Z,11.00
2019-05-23T01:43:26.280Z,10.23
2019-05-23T01:44:32.944Z,9.18
2019-05-23T01:45:40.947Z,9.90
2019-05-23T01:46:47.367Z,9.38
2019-05-23T01:47:54.294Z,9.70
2019-05-23T01:49:00.254Z,10.85
2019-05-23T01:50:08.457Z,9.68
2019-05-23T01:51:16.247Z,11.78
2019-05-23T01:52:24.277Z,9.80
2019-05-23T01:53:31.917Z,9.75
2019-05-23T01:54:39.464Z,9.98
2019-05-23T01:55:46.952Z,9.73
2019-05-23T01:56:54.084Z,10.25
2019-05-23T01:58:00.579Z,9.63
2019-05-23T01:59:07.542Z,9.75
2019-05-23T02:00:15.817Z,10.43
2019-05-23T02:01:23.012Z,9.23
2019-05-23T02:02:29.415Z,9.83
2019-05-23T02:03:37.355Z,17.77
2019-05-23T02:04:44.343Z,10.25
2019-05-23T02:05:51.386Z,10.05
2019-05-23T02:06:58.166Z,9.30
2019-05-23T02:08:05.772Z,9.88
2019-05-23T02:09:12.347Z,10.75
2019-05-23T02:10:20.359Z,9.98
2019-05-23T02:11:27.647Z,10.40
2019-05-23T02:12:35.156Z,12.37
2019-05-23T02:13:42.127Z,9.60
2019-05-23T02:14:50.622Z,9.20
2019-05-23T02:15:57.162Z,9.75
2019-05-23T02:17:04.505Z,12.23
2019-05-23T02:18:11.735Z,9.78
2019-05-23T02:19:19.020Z,10.50
2019-05-23T02:20:25.548Z,9.20
2019-05-23T02:21:32.377Z,10.48
2019-05-23T02:22:38.965Z,10.18
2019-05-23T02:23:46.530Z,9.70
2019-05-23T02:24:53.592Z,10.25
2019-05-23T02:26:00.867Z,10.28
2019-05-23T02:27:08.664Z,10.13
2019-05-23T02:28:16.666Z,9.63
2019-05-23T02:29:23.506Z,12.88
2019-05-23T02:30:34.706Z,11.88
2019-05-23T02:31:40.525Z,10.55
2019-05-23T02:32:48.220Z,15.68
2019-05-23T02:33:54.916Z,9.38
2019-05-23T02:35:01.758Z,10.50
2019-05-23T02:36:09.017Z,11.75
2019-05-23T02:37:26.255Z,15.63
2019-05-23T02:38:54.683Z,10.78
2019-05-23T02:40:15.062Z,16.30
2019-05-23T02:41:44.666Z,10.50
2019-05-23T02:43:03.415Z,10.23
2019-05-23T02:44:14.959Z,10.55
2019-05-23T02:45:27.794Z,13.60
2019-05-23T02:46:47.722Z,13.50
2019-05-23T02:47:54.847Z,12.30
2019-05-23T02:49:05.159Z,13.30
2019-05-23T02:50:18.555Z,11.43
2019-05-23T02:51:30.310Z,13.08
2019-05-23T02:52:42.795Z,12.53
2019-05-23T02:53:52.518Z,11.55
2019-05-23T02:55:01.308Z,13.80
2019-05-23T02:56:12.673Z,11.68
2019-05-23T02:57:20.303Z,14.87
2019-05-23T02:58:34.225Z,13.48
2019-05-23T02:59:49.873Z,13.80
2019-05-23T03:01:28.063Z,14.68
2019-05-23T03:03:02.801Z,12.40
2019-05-23T03:04:13.172Z,11.38
2019-05-23T03:05:21.982Z,13.53
2019-05-23T03:06:29.166Z,13.95
2019-05-23T03:07:36.153Z,11.60
2019-05-23T03:08:44.167Z,13.18
2019-05-23T03:09:51.954Z,13.38
2019-05-23T03:11:23.085Z,11.80
2019-05-23T03:12:31.659Z,12.70
2019-05-23T03:13:38.869Z,12.00
2019-05-23T03:14:45.758Z,11.65
2019-05-23T03:15:53.216Z,12.58
2019-05-23T03:17:02.973Z,12.58
2019-05-23T03:18:11.472Z,12.50
2019-05-23T03:19:34.572Z,11.50
2019-05-23T03:20:43.499Z,14.23
2019-05-23T03:21:52.597Z,14.15
2019-05-23T03:23:04.916Z,11.30
2019-05-23T03:24:12.524Z,11.65
2019-05-23T03:25:36.330Z,11.75
2019-05-23T03:27:00.310Z,11.83
2019-05-23T03:28:09.029Z,12.73
2019-05-23T03:29:15.344Z,13.18
2019-05-23T03:30:26.752Z,13.10
2019-05-23T03:31:43.350Z,14.40
2019-05-23T03:32:53.466Z,16.32
2019-05-23T03:34:00.486Z,13.22
2019-05-23T03:35:25.230Z,12.58
2019-05-23T03:36:31.873Z,12.90
2019-05-23T03:37:38.898Z,13.45
2019-05-23T03:38:45.226Z,12.90
2019-05-23T03:39:52.934Z,12.88
2019-05-23T03:40:59.757Z,12.65
2019-05-23T03:42:08.317Z,14.30
2019-05-23T03:43:14.613Z,13.08
2019-05-23T03:44:21.464Z,13.90
2019-05-23T03:45:31.124Z,15.08
2019-05-23T03:46:39.142Z,12.95
2019-05-23T03:47:47.687Z,13.38
2019-05-23T03:48:55.090Z,13.13
2019-05-23T03:50:01.736Z,17.40
2019-05-23T03:51:10.170Z,14.95
2019-05-23T03:52:19.276Z,14.53
2019-05-23T03:53:27.993Z,14.78
2019-05-23T03:54:35.878Z,17.25
2019-05-23T03:55:43.235Z,15.88
2019-05-23T03:56:50.605Z,15.68
2019-05-23T03:57:58.495Z,15.72
2019-05-23T03:59:06.580Z,14.30
2019-05-23T04:00:18.064Z,16.62
2019-05-23T04:01:43.970Z,14.15
2019-05-23T04:02:35.196Z,17.75
2019-05-23T04:03:42.813Z,15.53
2019-05-23T04:04:50.190Z,15.43
2019-05-23T04:05:57.104Z,16.37
2019-05-23T04:07:06.009Z,16.12
2019-05-23T04:08:12.356Z,14.70
2019-05-23T04:09:19.665Z,15.48
2019-05-23T04:10:26.068Z,15.15
2019-05-23T04:11:33.021Z,15.55
2019-05-23T04:12:40.006Z,14.60
2019-05-23T04:13:47.265Z,14.73
2019-05-23T04:14:53.822Z,15.28
2019-05-23T04:16:02.303Z,15.68
2019-05-23T04:17:09.157Z,15.10
2019-05-23T04:18:16.534Z,14.95
2019-05-23T04:19:22.887Z,14.33
2019-05-23T04:20:30.309Z,14.63
2019-05-23T04:21:38.315Z,15.58
2019-05-23T04:22:45.339Z,15.93
2019-05-23T04:23:52.203Z,17.77
2019-05-23T04:25:02.142Z,16.67
2019-05-23T04:26:07.619Z,17.32
2019-05-23T04:27:14.970Z,16.45
2019-05-23T04:28:21.880Z,15.83
2019-05-23T04:29:28.969Z,16.05
2019-05-23T04:30:35.314Z,16.25
2019-05-23T04:31:41.804Z,17.48
2019-05-23T04:32:48.162Z,18.70
2019-05-23T04:33:55.249Z,16.87
2019-05-23T04:35:01.759Z,18.32
2019-05-23T04:36:08.692Z,19.15
2019-05-23T04:37:15.072Z,17.77
2019-05-23T04:38:22.019Z,16.12
2019-05-23T04:39:29.242Z,18.50
2019-05-23T04:40:37.253Z,17.27
2019-05-23T04:41:43.901Z,16.23
2019-05-23T04:42:50.858Z,16.48
2019-05-23T04:43:57.122Z,15.93
2019-05-23T04:45:04.310Z,17.48
2019-05-23T04:46:11.092Z,16.93
2019-05-23T04:47:18.070Z,20.37
2019-05-23T04:48:24.453Z,17.40
2019-05-23T04:49:31.516Z,16.75
2019-05-23T04:50:38.866Z,17.42
2019-05-23T04:51:46.263Z,17.23
2019-05-23T04:52:53.065Z,16.73
2019-05-23T04:53:59.851Z,19.27
2019-05-23T04:55:07.563Z,21.25
2019-05-23T04:56:15.088Z,19.07
2019-05-23T04:57:21.363Z,16.52
2019-05-23T04:58:28.085Z,16.97
2019-05-23T04:59:34.744Z,17.37
2019-05-23T05:00:41.768Z,17.00
2019-05-23T05:01:48.447Z,17.77
2019-05-23T05:02:56.398Z,18.40
2019-05-23T05:04:04.586Z,18.95
2019-05-23T05:05:11.953Z,17.77
2019-05-23T05:06:18.725Z,16.77
2019-05-23T05:07:25.669Z,25.37
2019-05-23T05:08:31.967Z,16.60
2019-05-23T05:09:39.512Z,17.73
2019-05-23T05:10:47.562Z,18.10
2019-05-23T05:11:54.884Z,16.95
2019-05-23T05:13:01.832Z,18.62
2019-05-23T05:14:08.946Z,18.37
2019-05-23T05:15:15.517Z,15.88
2019-05-23T05:16:23.724Z,21.15
2019-05-23T05:17:30.487Z,17.05
2019-05-23T05:18:38.194Z,17.35
2019-05-23T05:19:45.081Z,17.40
2019-05-23T05:20:52.127Z,20.32
2019-05-23T05:21:58.513Z,19.60
2019-05-23T05:23:06.011Z,17.90
2019-05-23T05:24:12.576Z,18.30
2019-05-23T05:25:20.192Z,18.62
2019-05-23T05:26:26.736Z,16.27
2019-05-23T05:27:33.634Z,17.30
2019-05-23T05:28:40.267Z,15.83
2019-05-23T05:29:47.339Z,15.50
2019-05-23T05:30:53.872Z,19.05
2019-05-23T05:32:03.650Z,15.25
2019-05-23T05:33:08.878Z,15.03
2019-05-23T05:34:15.756Z,16.42
2019-05-23T05:35:22.035Z,15.15
2019-05-23T05:36:29.047Z,15.58
2019-05-23T05:37:35.426Z,16.25
2019-05-23T05:38:43.382Z,19.65
2019-05-23T05:39:50.555Z,20.62
2019-05-23T05:40:57.690Z,18.27
2019-05-23T05:42:05.677Z,17.55
2019-05-23T05:43:12.928Z,16.90
2019-05-23T05:44:19.525Z,22.15
2019-05-23T05:45:26.847Z,17.15
2019-05-23T05:46:33.633Z,16.67
2019-05-23T05:47:41.107Z,17.60
2019-05-23T05:48:48.790Z,17.40
2019-05-23T05:49:56.076Z,18.57
2019-05-23T05:51:02.660Z,18.23
2019-05-23T05:52:10.777Z,17.75
2019-05-23T05:53:17.422Z,18.37
2019-05-23T05:54:24.888Z,18.15
2019-05-23T05:55:31.314Z,18.20
2019-05-23T05:56:38.173Z,20.85
2019-05-23T05:57:44.474Z,19.57
2019-05-23T05:58:51.701Z,18.77
2019-05-23T05:59:58.156Z,17.17
2019-05-23T06:01:07.760Z,18.05
2019-05-23T06:02:15.745Z,18.70
2019-05-23T06:03:22.715Z,17.12
2019-05-23T06:04:29.308Z,19.98
2019-05-23T06:05:55.340Z,21.35
2019-05-23T06:07:19.417Z,17.87
2019-05-23T06:08:27.422Z,18.30
2019-05-23T06:09:35.013Z,19.82
2019-05-23T06:10:41.633Z,16.87
2019-05-23T06:11:48.537Z,17.00
2019-05-23T06:12:54.846Z,17.25
2019-05-23T06:14:03.408Z,16.82
2019-05-23T06:15:10.112Z,15.05
2019-05-23T06:16:17.118Z,17.65
2019-05-23T06:17:23.244Z,17.77
2019-05-23T06:18:30.515Z,16.35
2019-05-23T06:19:36.832Z,18.40
2019-05-23T06:20:45.777Z,16.60
2019-05-23T06:21:52.830Z,17.20
2019-05-23T06:22:59.753Z,16.67
2019-05-23T06:24:07.255Z,15.28
2019-05-23T06:25:14.577Z,14.93
2019-05-23T06:26:21.214Z,17.00
2019-05-23T06:27:28.216Z,16.95
2019-05-23T06:28:34.636Z,15.55
2019-05-23T06:29:41.597Z,15.80
2019-05-23T06:30:48.693Z,15.88
2019-05-23T06:31:55.532Z,18.00
2019-05-23T06:33:21.344Z,17.70
2019-05-23T06:34:12.438Z,17.12
2019-05-23T06:35:19.415Z,19.02
2019-05-23T06:36:26.311Z,16.52
2019-05-23T06:37:34.462Z,19.65
2019-05-23T06:38:41.756Z,15.83
2019-05-23T06:39:47.758Z,16.00
2019-05-23T06:40:55.277Z,15.93
2019-05-23T06:42:01.773Z,15.95
2019-05-23T06:43:09.327Z,14.93
2019-05-23T06:44:16.315Z,14.43
2019-05-23T06:45:23.594Z,38.70
2019-05-23T06:46:29.948Z,15.90
2019-05-23T06:47:36.929Z,15.72
2019-05-23T06:48:45.791Z,17.95
2019-05-23T06:49:52.506Z,16.57
2019-05-23T06:50:58.662Z,15.58
2019-05-23T06:52:05.680Z,15.00
2019-05-23T06:53:12.233Z,16.97
2019-05-23T06:54:19.339Z,15.93
2019-05-23T06:55:25.889Z,15.20
2019-05-23T06:56:33.684Z,16.37
2019-05-23T06:57:40.442Z,18.92
2019-05-23T06:58:47.299Z,15.35
2019-05-23T06:59:53.596Z,16.37
2019-05-23T07:01:00.649Z,15.90
2019-05-23T07:02:06.602Z,14.53
2019-05-23T07:03:13.737Z,15.70
2019-05-23T07:04:20.525Z,14.15
2019-05-23T07:05:32.976Z,16.52
2019-05-23T07:06:39.564Z,15.80
2019-05-23T07:07:46.484Z,15.00
2019-05-23T07:08:52.821Z,15.38
2019-05-23T07:10:00.900Z,17.98
2019-05-23T07:11:07.275Z,15.08
2019-05-23T07:12:14.100Z,15.53
2019-05-23T07:13:21.432Z,15.90
2019-05-23T07:14:28.494Z,15.80
2019-05-23T07:15:35.000Z,18.98
2019-05-23T07:16:42.193Z,17.57
2019-05-23T07:17:49.784Z,20.88
2019-05-23T07:18:56.804Z,16.10
2019-05-23T07:20:03.594Z,16.75
2019-05-23T07:21:11.170Z,18.45
2019-05-23T07:22:19.367Z,17.52
2019-05-23T07:23:28.042Z,18.35
2019-05-23T07:24:34.564Z,18.52
2019-05-23T07:25:41.594Z,19.70
2019-05-23T07:26:48.645Z,21.33
2019-05-23T07:27:55.920Z,20.90
2019-05-23T07:29:02.873Z,24.32
2019-05-23T07:30:13.543Z,18.45
2019-05-23T07:31:20.545Z,19.85
2019-05-23T07:32:27.466Z,20.10
2019-05-23T07:33:33.794Z,20.70
2019-05-23T07:34:40.758Z,21.33
2019-05-23T07:35:47.062Z,23.80
2019-05-23T07:36:54.136Z,21.65
2019-05-23T07:38:00.370Z,22.93
2019-05-23T07:39:11.707Z,22.52
2019-05-23T07:40:20.578Z,23.15
2019-05-23T07:41:27.948Z,21.73
2019-05-23T07:42:34.706Z,22.58
2019-05-23T07:43:41.997Z,21.52
2019-05-23T07:44:49.669Z,24.07
2019-05-23T07:45:58.343Z,21.60
2019-05-23T07:47:06.553Z,22.77
2019-05-23T07:48:13.623Z,22.13
2019-05-23T07:49:20.283Z,21.77
2019-05-23T07:50:27.320Z,22.30
2019-05-23T07:51:33.911Z,20.80
2019-05-23T07:52:41.033Z,21.82
2019-05-23T07:54:09.174Z,21.55
2019-05-23T07:55:31.718Z,24.35
2019-05-23T07:56:38.943Z,23.87
2019-05-23T07:57:45.519Z,22.55
2019-05-23T07:58:52.510Z,23.20
2019-05-23T07:59:58.807Z,22.00
2019-05-23T08:01:07.146Z,21.48
2019-05-23T08:02:25.473Z,23.25
2019-05-23T08:03:33.353Z,20.80
2019-05-23T08:04:39.757Z,22.05
2019-05-23T08:05:47.056Z,21.37
2019-05-23T08:06:54.543Z,22.93
2019-05-23T08:08:02.107Z,21.45
2019-05-23T08:09:11.410Z,21.35
2019-05-23T08:10:32.493Z,26.75
2019-05-23T08:11:27.003Z,24.50
2019-05-23T08:12:33.886Z,23.50
2019-05-23T08:13:41.056Z,24.60
2019-05-23T08:14:48.321Z,24.87
2019-05-23T08:15:55.379Z,23.67
2019-05-23T08:17:02.793Z,22.93
2019-05-23T08:18:09.643Z,22.62
2019-05-23T08:19:19.661Z,25.90
2019-05-23T08:20:24.446Z,22.70
2019-05-23T08:21:31.608Z,27.30
2019-05-23T08:22:38.288Z,26.30
2019-05-23T08:23:45.497Z,26.73
2019-05-23T08:24:51.985Z,24.70
2019-05-23T08:25:59.093Z,23.22
2019-05-23T08:27:06.308Z,24.65
2019-05-23T08:28:13.999Z,23.80
2019-05-23T08:29:27.469Z,25.12
2019-05-23T08:30:29.167Z,24.43
2019-05-23T08:31:35.226Z,25.55
2019-05-23T08:32:42.361Z,23.35
2019-05-23T08:33:49.365Z,25.00
2019-05-23T08:34:56.336Z,26.37
2019-05-23T08:36:03.692Z,28.38
2019-05-23T08:37:12.386Z,27.15
2019-05-23T08:38:19.408Z,26.70
2019-05-23T08:39:27.573Z,27.48
2019-05-23T08:40:34.273Z,25.10
2019-05-23T08:41:41.759Z,27.77
2019-05-23T08:42:47.925Z,30.30
2019-05-23T08:43:55.181Z,28.15
2019-05-23T08:45:02.095Z,27.87
2019-05-23T08:46:09.582Z,26.93
2019-05-23T08:47:16.951Z,28.70
2019-05-23T08:48:24.196Z,27.77
2019-05-23T08:49:31.391Z,30.77
2019-05-23T08:50:38.372Z,27.22
2019-05-23T08:51:45.123Z,27.62
2019-05-23T08:52:52.487Z,26.73
2019-05-23T08:53:59.086Z,27.25
2019-05-23T08:55:09.394Z,33.78
2019-05-23T08:56:18.735Z,32.33
2019-05-23T08:57:24.407Z,31.73
2019-05-23T08:58:30.948Z,28.38
2019-05-23T08:59:38.332Z,32.53
2019-05-23T09:00:46.119Z,31.15
2019-05-23T09:01:53.115Z,33.65
2019-05-23T09:03:00.169Z,31.93
2019-05-23T09:04:07.615Z,33.28
2019-05-23T09:05:14.970Z,32.80
2019-05-23T09:06:22.406Z,32.73
2019-05-23T09:07:29.490Z,36.68
2019-05-23T09:08:37.338Z,29.92
2019-05-23T09:09:44.254Z,30.08
2019-05-23T09:10:51.595Z,29.30
2019-05-23T09:11:59.266Z,33.20
2019-05-23T09:13:06.555Z,36.17
2019-05-23T09:14:12.879Z,32.90
2019-05-23T09:15:19.945Z,31.50
2019-05-23T09:16:26.265Z,38.73
2019-05-23T09:17:51.045Z,31.30
2019-05-23T09:18:41.991Z,31.93
2019-05-23T09:19:49.300Z,32.13
2019-05-23T09:20:56.355Z,33.08
2019-05-23T09:22:03.229Z,31.40
2019-05-23T09:23:10.088Z,32.65
2019-05-23T09:24:17.190Z,31.95
2019-05-23T09:25:23.615Z,32.30
2019-05-23T09:26:31.038Z,37.17
2019-05-23T09:27:37.381Z,35.03
2019-05-23T09:28:45.051Z,32.53
2019-05-23T09:29:52.046Z,36.15
2019-05-23T09:30:59.791Z,35.00
2019-05-23T09:32:06.496Z,37.25
2019-05-23T09:33:13.293Z,37.63
2019-05-23T09:34:20.043Z,36.83
2019-05-23T09:35:28.088Z,34.70
2019-05-23T09:36:34.443Z,38.42
2019-05-23T09:37:41.610Z,33.92
2019-05-23T09:38:48.244Z,37.25
2019-05-23T09:39:55.498Z,34.18
2019-05-23T09:41:01.821Z,35.35
2019-05-23T09:42:12.009Z,32.88
2019-05-23T09:43:17.859Z,32.88
2019-05-23T09:44:24.811Z,34.30
2019-05-23T09:45:31.223Z,39.20
2019-05-23T09:46:38.076Z,33.05
2019-05-23T09:47:44.354Z,39.63
2019-05-23T09:48:51.448Z,33.15
2019-05-23T09:49:57.872Z,32.83
2019-05-23T09:51:04.847Z,39.95
2019-05-23T09:52:12.227Z,34.50
2019-05-23T09:53:20.427Z,30.75
2019-05-23T09:54:27.170Z,36.48
2019-05-23T09:55:34.903Z,34.63
2019-05-23T09:56:41.603Z,36.03
2019-05-23T09:57:48.918Z,35.10
2019-05-23T09:58:55.362Z,36.75
2019-05-23T10:00:03.347Z,35.45
2019-05-23T10:01:11.487Z,37.38
2019-05-23T10:02:18.596Z,32.80
2019-05-23T10:03:25.047Z,35.75
2019-05-23T10:04:31.995Z,31.62
2019-05-23T10:05:43.533Z,33.95
2019-05-23T10:06:47.124Z,30.02
2019-05-23T10:07:53.456Z,31.55
2019-05-23T10:09:00.705Z,31.52
2019-05-23T10:10:08.516Z,30.08
2019-05-23T10:11:15.399Z,31.87
2019-05-23T10:12:22.583Z,29.80
2019-05-23T10:13:39.062Z,34.30
2019-05-23T10:14:39.339Z,36.38
2019-05-23T10:16:06.901Z,27.52
2019-05-23T10:17:13.327Z,32.38
2019-05-23T10:18:21.265Z,29.67
2019-05-23T10:19:27.665Z,26.80
2019-05-23T10:20:36.287Z,27.48
2019-05-23T10:21:42.738Z,25.92
2019-05-23T10:22:49.694Z,27.82
2019-05-23T10:23:56.100Z,27.90
2019-05-23T10:25:03.116Z,25.90
2019-05-23T10:26:09.336Z,27.45
2019-05-23T10:27:16.872Z,30.82
2019-05-23T10:28:23.286Z,29.00
2019-05-23T10:29:29.926Z,30.12
2019-05-23T10:30:36.315Z,31.45
2019-05-23T10:31:43.230Z,29.27
2019-05-23T10:32:50.728Z,28.95
2019-05-23T10:33:57.657Z,33.80
2019-05-23T10:35:04.586Z,30.65
2019-05-23T10:36:11.742Z,35.05
2019-05-23T10:37:18.426Z,36.38
2019-05-23T10:38:28.994Z,30.90
2019-05-23T10:39:33.570Z,34.03
2019-05-23T10:40:40.589Z,30.08
2019-05-23T10:41:47.087Z,31.77
2019-05-23T10:42:53.954Z,32.63
2019-05-23T10:44:00.278Z,34.58
2019-05-23T10:45:08.185Z,33.75
2019-05-23T10:46:15.186Z,32.90
2019-05-23T10:47:22.330Z,31.05
2019-05-23T10:48:28.994Z,31.55
2019-05-23T10:49:35.913Z,33.73
2019-05-23T10:50:45.135Z,29.72
2019-05-23T10:51:50.791Z,35.33
2019-05-23T10:52:57.127Z,32.73
2019-05-23T10:54:04.811Z,32.13
2019-05-23T10:55:11.278Z,35.00
2019-05-23T10:56:20.502Z,31.25
2019-05-23T10:57:26.916Z,32.53
2019-05-23T10:58:33.794Z,34.70
2019-05-23T10:59:40.179Z,32.38
2019-05-23T11:00:47.808Z,34.13
2019-05-23T11:01:54.288Z,33.92
2019-05-23T11:03:01.639Z,34.88
2019-05-23T11:04:08.737Z,34.60
2019-05-23T11:05:16.327Z,34.60
2019-05-23T11:06:22.750Z,34.63
2019-05-23T11:07:30.012Z,35.05
2019-05-23T11:08:37.503Z,34.43
2019-05-23T11:09:44.494Z,36.08
2019-05-23T11:10:51.423Z,36.53
2019-05-23T11:11:58.848Z,33.60
2019-05-23T11:13:05.586Z,36.55
2019-05-23T11:14:12.807Z,34.30
2019-05-23T11:15:19.618Z,35.30
2019-05-23T11:16:26.690Z,35.80
2019-05-23T11:17:33.318Z,40.67
2019-05-23T11:18:40.252Z,39.98
2019-05-23T11:19:46.655Z,41.77
2019-05-23T11:20:53.935Z,37.70
2019-05-23T11:22:00.353Z,37.30
2019-05-23T11:23:08.026Z,35.38
2019-05-23T11:24:14.980Z,36.83
2019-05-23T11:25:22.284Z,34.43
2019-05-23T11:26:28.727Z,37.13
2019-05-23T11:27:35.779Z,37.08
2019-05-23T11:28:42.581Z,37.48
2019-05-23T11:29:49.758Z,38.73
2019-05-23T11:30:58.668Z,37.40
2019-05-23T11:32:06.968Z,42.48
2019-05-23T11:33:15.281Z,41.92
2019-05-23T11:34:22.844Z,39.30
2019-05-23T11:35:29.677Z,38.78
2019-05-23T11:36:37.261Z,38.85
2019-05-23T11:37:43.635Z,41.45
2019-05-23T11:38:50.737Z,38.83
2019-05-23T11:39:57.140Z,42.93
2019-05-23T11:41:04.387Z,43.63
2019-05-23T11:42:10.829Z,42.00
2019-05-23T11:43:17.670Z,40.78
2019-05-23T11:44:23.975Z,39.67
2019-05-23T11:45:33.774Z,39.67
2019-05-23T11:46:40.595Z,42.88
2019-05-23T11:47:47.245Z,36.42
2019-05-23T11:48:53.675Z,39.23
2019-05-23T11:50:00.640Z,36.48
2019-05-23T11:51:07.012Z,32.98
2019-05-23T11:52:14.537Z,38.80
2019-05-23T11:53:20.990Z,32.10
2019-05-23T11:54:29.933Z,37.48
2019-05-23T11:55:36.238Z,34.63
2019-05-23T11:56:44.086Z,34.80
2019-05-23T11:57:50.616Z,34.70
2019-05-23T11:59:01.099Z,34.30
2019-05-23T12:00:07.098Z,39.67
2019-05-23T12:01:28.732Z,46.02
2019-05-23T12:02:41.791Z,41.30
2019-05-23T12:03:50.214Z,42.17
2019-05-23T12:04:58.496Z,42.88
2019-05-23T12:06:06.157Z,44.27
2019-05-23T12:07:27.016Z,37.80
2019-05-23T12:08:33.939Z,40.08
2019-05-23T12:09:40.484Z,41.02
2019-05-23T12:10:47.491Z,45.03
2019-05-23T12:11:54.137Z,40.28
2019-05-23T12:13:00.973Z,42.95
2019-05-23T12:14:07.550Z,44.20
2019-05-23T12:15:18.281Z,40.05
2019-05-23T12:16:26.225Z,42.13
2019-05-23T12:17:33.597Z,42.60
2019-05-23T12:18:40.267Z,41.60
2019-05-23T12:19:47.301Z,46.63
2019-05-23T12:20:54.382Z,42.90
2019-05-23T12:22:01.718Z,45.28
2019-05-23T12:23:10.921Z,46.45
2019-05-23T12:24:17.374Z,42.75
2019-05-23T12:25:25.131Z,47.05
2019-05-23T12:26:32.202Z,45.50
2019-05-23T12:27:38.685Z,45.10
2019-05-23T12:28:45.897Z,47.75
2019-05-23T12:29:53.226Z,45.65
2019-05-23T12:31:00.436Z,40.30
2019-05-23T12:32:08.485Z,46.10
2019-05-23T12:33:15.422Z,37.50
2019-05-23T12:34:21.733Z,40.08
2019-05-23T12:35:28.809Z,33.70
2019-05-23T12:36:36.193Z,36.40
2019-05-23T12:37:43.313Z,32.45
2019-05-23T12:38:49.818Z,32.15
2019-05-23T12:39:56.767Z,35.70
2019-05-23T12:41:03.976Z,31.45
2019-05-23T12:42:10.814Z,29.82
2019-05-23T12:43:17.264Z,30.32
2019-05-23T12:44:24.374Z,28.47
2019-05-23T12:45:30.772Z,28.65
2019-05-23T12:46:37.668Z,32.60
2019-05-23T12:47:57.424Z,31.65
2019-05-23T12:49:10.888Z,26.62
2019-05-23T12:50:19.880Z,29.77
2019-05-23T12:51:29.326Z,28.67
2019-05-23T12:52:35.695Z,26.00
2019-05-23T12:53:42.922Z,31.42
2019-05-23T12:54:49.279Z,30.43
2019-05-23T12:55:56.170Z,27.73
2019-05-23T12:57:02.368Z,30.75
2019-05-23T12:58:09.991Z,31.48
2019-05-23T12:59:17.122Z,27.40
2019-05-23T13:00:42.898Z,26.50
2019-05-23T13:01:51.500Z,30.05
2019-05-23T13:02:58.531Z,31.35
2019-05-23T13:04:09.959Z,26.93
2019-05-23T13:05:14.296Z,32.83
2019-05-23T13:06:20.597Z,33.90
2019-05-23T13:07:36.309Z,30.05
2019-05-23T13:08:37.043Z,31.35
2019-05-23T13:09:44.119Z,34.63
2019-05-23T13:10:50.603Z,31.60
2019-05-23T13:11:57.839Z,28.10
2019-05-23T13:13:03.994Z,28.20
2019-05-23T13:14:10.986Z,28.95
2019-05-23T13:15:18.443Z,30.05
2019-05-23T13:16:25.716Z,35.25
2019-05-23T13:17:32.678Z,28.57
2019-05-23T13:18:39.619Z,30.55
2019-05-23T13:19:46.078Z,28.83
2019-05-23T13:20:58.121Z,28.80
2019-05-23T13:22:02.305Z,27.45
2019-05-23T13:23:13.370Z,33.55
2019-05-23T13:24:17.292Z,30.40
2019-05-23T13:25:25.612Z,28.85
2019-05-23T13:26:31.984Z,26.62
2019-05-23T13:27:39.997Z,25.23
2019-05-23T13:28:46.504Z,28.05
2019-05-23T13:29:53.449Z,26.42
2019-05-23T13:30:59.694Z,26.48
2019-05-23T13:32:07.133Z,28.05
2019-05-23T13:33:13.552Z,26.95
2019-05-23T13:34:20.368Z,26.82
2019-05-23T13:35:27.048Z,28.73
2019-05-23T13:36:33.748Z,25.60
2019-05-23T13:37:52.924Z,26.77
2019-05-23T13:38:49.502Z,27.87
2019-05-23T13:39:57.827Z,26.57
2019-05-23T13:41:05.035Z,27.98
2019-05-23T13:42:11.572Z,24.85
2019-05-23T13:43:18.517Z,23.65
2019-05-23T13:44:33.370Z,24.27
2019-05-23T13:45:33.875Z,21.62
2019-05-23T13:46:40.198Z,24.77
2019-05-23T13:47:46.932Z,24.63
2019-05-23T13:48:53.303Z,25.30
2019-05-23T13:50:00.248Z,25.45
2019-05-23T13:51:07.073Z,25.77
2019-05-23T13:52:14.004Z,23.07
2019-05-23T13:53:20.612Z,28.20
2019-05-23T13:54:27.784Z,26.17
2019-05-23T13:55:34.558Z,24.18
2019-05-23T13:56:41.758Z,26.25
2019-05-23T13:57:48.096Z,23.62
2019-05-23T13:58:54.836Z,27.30
2019-05-23T14:00:01.076Z,27.10
2019-05-23T14:01:09.828Z,27.60
2019-05-23T14:02:16.644Z,23.27
2019-05-23T14:03:23.847Z,27.70
2019-05-23T14:04:30.313Z,23.75
2019-05-23T14:05:37.285Z,25.17
2019-05-23T14:06:43.750Z,25.17
2019-05-23T14:07:50.823Z,23.38
2019-05-23T14:08:57.315Z,26.57
2019-05-23T14:10:04.320Z,27.93
2019-05-23T14:11:10.787Z,26.48
2019-05-23T14:12:21.939Z,24.57
2019-05-23T14:13:26.295Z,24.75
2019-05-23T14:14:33.755Z,30.02
2019-05-23T14:15:42.760Z,25.27
2019-05-23T14:17:08.196Z,24.45
2019-05-23T14:18:18.812Z,23.22
2019-05-23T14:19:29.343Z,24.82
2019-05-23T14:20:34.918Z,23.52
2019-05-23T14:21:42.020Z,23.02
2019-05-23T14:22:53.758Z,23.12
2019-05-23T14:24:00.753Z,20.57
2019-05-23T14:25:07.401Z,24.43
2019-05-23T14:26:15.234Z,21.65
2019-05-23T14:27:31.924Z,21.45
2019-05-23T14:28:38.968Z,23.60
2019-05-23T14:29:45.386Z,22.30
2019-05-23T14:31:13.900Z,21.48
2019-05-23T14:32:42.256Z,21.62
2019-05-23T14:33:58.052Z,20.48
2019-05-23T14:35:04.245Z,20.25
2019-05-23T14:36:19.681Z,21.20
2019-05-23T14:37:31.982Z,21.50
2019-05-23T14:38:38.665Z,21.07
2019-05-23T14:39:58.198Z,19.17
2019-05-23T14:41:06.130Z,19.77
2019-05-23T14:42:29.079Z,18.95
2019-05-23T14:43:36.213Z,17.85
2019-05-23T14:44:42.230Z,21.27